sensor_id;sensor_type;location;lat;lon;timestamp;P1;durP1;ratioP1;P2;durP2;ratioP2
68126;SDS011;54931;52.098;21.006;2023-03-01T00:01:44;128.80;;;40.50;;
68126;SDS011;54931;52.098;21.006;2023-03-01T00:04:12;127.00;;;38.90;;
68126;SDS011;54931;52.098;21.006;2023-03-01T00:06:42;163.20;;;54.40;;
68126;SDS011;54931;52.098;21.006;2023-03-01T00:09:14;121.30;;;39.70;;
68126;SDS011;54931;52.098;21.006;2023-03-01T00:11:43;97.30;;;32.00;;
68126;SDS011;54931;52.098;21.006;2023-03-01T00:14:13;93.80;;;30.40;;
68126;SDS011;54931;52.098;21.006;2023-03-01T00:16:45;116.60;;;35.00;;
68126;SDS011;54931;52.098;21.006;2023-03-01T00:19:16;131.70;;;39.90;;
68126;SDS011;54931;52.098;21.006;2023-03-01T00:21:46;137.90;;;40.30;;
68126;SDS011;54931;52.098;21.006;2023-03-01T00:24:14;96.00;;;28.90;;
68126;SDS011;54931;52.098;21.006;2023-03-01T00:26:43;88.50;;;29.10;;
68126;SDS011;54931;52.098;21.006;2023-03-01T00:29:12;99.70;;;34.60;;
68126;SDS011;54931;52.098;21.006;2023-03-01T00:31:40;116.40;;;42.00;;
68126;SDS011;54931;52.098;21.006;2023-03-01T00:34:09;134.70;;;41.90;;
68126;SDS011;54931;52.098;21.006;2023-03-01T00:36:37;249.40;;;70.50;;
68126;SDS011;54931;52.098;21.006;2023-03-01T00:39:10;107.40;;;33.80;;
68126;SDS011;54931;52.098;21.006;2023-03-01T00:41:42;99.50;;;33.30;;
68126;SDS011;54931;52.098;21.006;2023-03-01T00:44:10;85.80;;;26.80;;
68126;SDS011;54931;52.098;21.006;2023-03-01T00:46:39;75.90;;;24.30;;
68126;SDS011;54931;52.098;21.006;2023-03-01T00:49:07;105.50;;;33.70;;
68126;SDS011;54931;52.098;21.006;2023-03-01T00:51:35;101.90;;;33.60;;
68126;SDS011;54931;52.098;21.006;2023-03-01T00:54:03;135.60;;;44.20;;
68126;SDS011;54931;52.098;21.006;2023-03-01T00:56:31;131.10;;;40.50;;
68126;SDS011;54931;52.098;21.006;2023-03-01T00:58:59;89.00;;;30.30;;
68126;SDS011;54931;52.098;21.006;2023-03-01T01:01:29;183.90;;;49.80;;
68126;SDS011;54931;52.098;21.006;2023-03-01T01:04:01;111.30;;;36.20;;
68126;SDS011;54931;52.098;21.006;2023-03-01T01:06:45;122.20;;;35.10;;
68126;SDS011;54931;52.098;21.006;2023-03-01T01:09:16;111.40;;;32.20;;
68126;SDS011;54931;52.098;21.006;2023-03-01T01:11:49;95.60;;;32.20;;
68126;SDS011;54931;52.098;21.006;2023-03-01T01:14:19;140.60;;;42.10;;
68126;SDS011;54931;52.098;21.006;2023-03-01T01:16:47;93.10;;;31.40;;
68126;SDS011;54931;52.098;21.006;2023-03-01T01:19:16;116.00;;;37.00;;
68126;SDS011;54931;52.098;21.006;2023-03-01T01:21:44;130.60;;;46.50;;
68126;SDS011;54931;52.098;21.006;2023-03-01T01:24:12;279.10;;;90.20;;
68126;SDS011;54931;52.098;21.006;2023-03-01T01:26:41;146.30;;;47.90;;
68126;SDS011;54931;52.098;21.006;2023-03-01T01:29:11;122.90;;;38.00;;
68126;SDS011;54931;52.098;21.006;2023-03-01T01:31:40;102.90;;;32.10;;
68126;SDS011;54931;52.098;21.006;2023-03-01T01:34:17;90.70;;;31.20;;
68126;SDS011;54931;52.098;21.006;2023-03-01T01:36:50;72.70;;;21.30;;
68126;SDS011;54931;52.098;21.006;2023-03-01T01:39:21;66.90;;;21.80;;
68126;SDS011;54931;52.098;21.006;2023-03-01T01:41:49;62.90;;;19.70;;
68126;SDS011;54931;52.098;21.006;2023-03-01T01:44:23;83.40;;;27.10;;
68126;SDS011;54931;52.098;21.006;2023-03-01T01:47:32;121.10;;;36.60;;
68126;SDS011;54931;52.098;21.006;2023-03-01T01:50:01;101.80;;;31.60;;
68126;SDS011;54931;52.098;21.006;2023-03-01T01:52:35;86.50;;;24.60;;
68126;SDS011;54931;52.098;21.006;2023-03-01T01:55:09;100.20;;;30.30;;
68126;SDS011;54931;52.098;21.006;2023-03-01T01:57:48;99.80;;;31.30;;
68126;SDS011;54931;52.098;21.006;2023-03-01T02:00:25;69.60;;;19.60;;
68126;SDS011;54931;52.098;21.006;2023-03-01T02:03:01;100.80;;;29.50;;
68126;SDS011;54931;52.098;21.006;2023-03-01T02:05:43;85.50;;;24.50;;
68126;SDS011;54931;52.098;21.006;2023-03-01T02:08:14;112.40;;;33.50;;
68126;SDS011;54931;52.098;21.006;2023-03-01T02:10:46;213.90;;;63.90;;
68126;SDS011;54931;52.098;21.006;2023-03-01T02:13:16;138.60;;;43.60;;
68126;SDS011;54931;52.098;21.006;2023-03-01T02:15:45;160.10;;;49.00;;
68126;SDS011;54931;52.098;21.006;2023-03-01T02:18:16;126.80;;;40.00;;
68126;SDS011;54931;52.098;21.006;2023-03-01T02:20:51;123.50;;;36.00;;
68126;SDS011;54931;52.098;21.006;2023-03-01T02:23:30;117.20;;;34.80;;
68126;SDS011;54931;52.098;21.006;2023-03-01T02:26:18;114.00;;;33.30;;
68126;SDS011;54931;52.098;21.006;2023-03-01T02:28:52;112.80;;;39.10;;
68126;SDS011;54931;52.098;21.006;2023-03-01T02:31:21;124.30;;;38.60;;
68126;SDS011;54931;52.098;21.006;2023-03-01T02:34:18;110.00;;;35.40;;
68126;SDS011;54931;52.098;21.006;2023-03-01T02:36:53;107.20;;;35.50;;
68126;SDS011;54931;52.098;21.006;2023-03-01T02:39:36;117.40;;;38.70;;
68126;SDS011;54931;52.098;21.006;2023-03-01T02:42:20;110.40;;;34.90;;
68126;SDS011;54931;52.098;21.006;2023-03-01T02:44:50;126.90;;;42.90;;
68126;SDS011;54931;52.098;21.006;2023-03-01T02:47:19;120.10;;;40.90;;
68126;SDS011;54931;52.098;21.006;2023-03-01T02:49:47;104.40;;;32.90;;
68126;SDS011;54931;52.098;21.006;2023-03-01T02:52:43;109.90;;;34.20;;
68126;SDS011;54931;52.098;21.006;2023-03-01T02:55:17;102.70;;;36.90;;
68126;SDS011;54931;52.098;21.006;2023-03-01T02:57:46;102.20;;;34.10;;
68126;SDS011;54931;52.098;21.006;2023-03-01T03:00:21;107.20;;;35.80;;
68126;SDS011;54931;52.098;21.006;2023-03-01T03:02:54;98.60;;;32.40;;
68126;SDS011;54931;52.098;21.006;2023-03-01T03:05:27;95.90;;;32.80;;
68126;SDS011;54931;52.098;21.006;2023-03-01T03:07:59;102.80;;;34.00;;
68126;SDS011;54931;52.098;21.006;2023-03-01T03:10:31;103.60;;;32.20;;
68126;SDS011;54931;52.098;21.006;2023-03-01T03:13:09;98.50;;;33.40;;
68126;SDS011;54931;52.098;21.006;2023-03-01T03:15:40;95.50;;;33.50;;
68126;SDS011;54931;52.098;21.006;2023-03-01T03:18:11;105.50;;;35.20;;
68126;SDS011;54931;52.098;21.006;2023-03-01T03:20:44;77.10;;;26.70;;
68126;SDS011;54931;52.098;21.006;2023-03-01T03:23:13;104.60;;;31.70;;
68126;SDS011;54931;52.098;21.006;2023-03-01T03:25:41;100.50;;;33.50;;
68126;SDS011;54931;52.098;21.006;2023-03-01T03:28:09;101.80;;;34.60;;
68126;SDS011;54931;52.098;21.006;2023-03-01T03:30:40;96.60;;;29.70;;
68126;SDS011;54931;52.098;21.006;2023-03-01T03:33:10;93.20;;;29.70;;
68126;SDS011;54931;52.098;21.006;2023-03-01T03:35:47;88.30;;;29.80;;
68126;SDS011;54931;52.098;21.006;2023-03-01T03:38:18;82.50;;;27.90;;
68126;SDS011;54931;52.098;21.006;2023-03-01T03:41:03;59.90;;;20.20;;
68126;SDS011;54931;52.098;21.006;2023-03-01T03:43:36;73.20;;;25.90;;
68126;SDS011;54931;52.098;21.006;2023-03-01T03:46:06;60.80;;;20.80;;
68126;SDS011;54931;52.098;21.006;2023-03-01T03:48:36;91.30;;;27.80;;
68126;SDS011;54931;52.098;21.006;2023-03-01T03:51:10;88.00;;;28.20;;
68126;SDS011;54931;52.098;21.006;2023-03-01T03:53:39;64.30;;;20.70;;
68126;SDS011;54931;52.098;21.006;2023-03-01T03:56:07;66.60;;;22.10;;
68126;SDS011;54931;52.098;21.006;2023-03-01T03:58:35;89.20;;;30.40;;
68126;SDS011;54931;52.098;21.006;2023-03-01T04:01:04;102.80;;;33.10;;
68126;SDS011;54931;52.098;21.006;2023-03-01T04:03:33;94.30;;;30.70;;
68126;SDS011;54931;52.098;21.006;2023-03-01T04:06:03;101.50;;;30.80;;
68126;SDS011;54931;52.098;21.006;2023-03-01T04:08:32;62.40;;;22.20;;
68126;SDS011;54931;52.098;21.006;2023-03-01T04:11:03;89.30;;;27.40;;
68126;SDS011;54931;52.098;21.006;2023-03-01T04:13:54;83.00;;;28.00;;
68126;SDS011;54931;52.098;21.006;2023-03-01T04:16:24;98.90;;;32.30;;
68126;SDS011;54931;52.098;21.006;2023-03-01T04:18:52;102.30;;;31.70;;
68126;SDS011;54931;52.098;21.006;2023-03-01T04:21:21;99.70;;;29.40;;
68126;SDS011;54931;52.098;21.006;2023-03-01T04:23:49;98.20;;;31.30;;
68126;SDS011;54931;52.098;21.006;2023-03-01T04:26:19;84.50;;;26.90;;
68126;SDS011;54931;52.098;21.006;2023-03-01T04:28:47;105.00;;;33.30;;
68126;SDS011;54931;52.098;21.006;2023-03-01T04:31:18;105.50;;;32.60;;
68126;SDS011;54931;52.098;21.006;2023-03-01T04:33:50;96.60;;;30.20;;
68126;SDS011;54931;52.098;21.006;2023-03-01T04:36:25;99.80;;;31.00;;
68126;SDS011;54931;52.098;21.006;2023-03-01T04:38:56;56.40;;;18.80;;
68126;SDS011;54931;52.098;21.006;2023-03-01T04:41:25;53.30;;;18.80;;
68126;SDS011;54931;52.098;21.006;2023-03-01T04:43:53;63.20;;;20.30;;
68126;SDS011;54931;52.098;21.006;2023-03-01T04:46:22;66.50;;;21.40;;
68126;SDS011;54931;52.098;21.006;2023-03-01T04:48:50;73.40;;;22.60;;
68126;SDS011;54931;52.098;21.006;2023-03-01T04:51:18;106.90;;;32.50;;
68126;SDS011;54931;52.098;21.006;2023-03-01T04:53:46;106.80;;;30.80;;
68126;SDS011;54931;52.098;21.006;2023-03-01T04:56:15;74.10;;;23.70;;
68126;SDS011;54931;52.098;21.006;2023-03-01T04:58:45;106.60;;;35.10;;
68126;SDS011;54931;52.098;21.006;2023-03-01T05:01:19;80.60;;;22.40;;
68126;SDS011;54931;52.098;21.006;2023-03-01T05:03:50;71.90;;;24.50;;
68126;SDS011;54931;52.098;21.006;2023-03-01T05:06:20;93.90;;;29.20;;
68126;SDS011;54931;52.098;21.006;2023-03-01T05:08:48;85.40;;;28.50;;
68126;SDS011;54931;52.098;21.006;2023-03-01T05:11:16;103.10;;;29.70;;
68126;SDS011;54931;52.098;21.006;2023-03-01T05:13:44;164.40;;;48.90;;
68126;SDS011;54931;52.098;21.006;2023-03-01T05:16:12;139.40;;;39.10;;
68126;SDS011;54931;52.098;21.006;2023-03-01T05:18:41;127.30;;;36.00;;
68126;SDS011;54931;52.098;21.006;2023-03-01T05:21:11;137.60;;;40.70;;
68126;SDS011;54931;52.098;21.006;2023-03-01T05:23:43;122.10;;;38.10;;
68126;SDS011;54931;52.098;21.006;2023-03-01T05:26:12;114.90;;;39.30;;
68126;SDS011;54931;52.098;21.006;2023-03-01T05:28:40;84.30;;;27.80;;
68126;SDS011;54931;52.098;21.006;2023-03-01T05:31:08;106.60;;;35.80;;
68126;SDS011;54931;52.098;21.006;2023-03-01T05:33:40;82.40;;;31.90;;
68126;SDS011;54931;52.098;21.006;2023-03-01T05:36:09;103.70;;;36.60;;
68126;SDS011;54931;52.098;21.006;2023-03-01T05:38:37;93.60;;;32.10;;
68126;SDS011;54931;52.098;21.006;2023-03-01T05:41:05;87.10;;;30.90;;
68126;SDS011;54931;52.098;21.006;2023-03-01T05:43:44;78.50;;;27.80;;
68126;SDS011;54931;52.098;21.006;2023-03-01T05:46:12;85.50;;;28.30;;
68126;SDS011;54931;52.098;21.006;2023-03-01T05:48:42;71.90;;;25.50;;
68126;SDS011;54931;52.098;21.006;2023-03-01T05:51:11;74.00;;;25.20;;
68126;SDS011;54931;52.098;21.006;2023-03-01T05:53:39;75.40;;;27.40;;
68126;SDS011;54931;52.098;21.006;2023-03-01T05:56:07;83.20;;;28.20;;
68126;SDS011;54931;52.098;21.006;2023-03-01T05:58:36;73.50;;;28.40;;
68126;SDS011;54931;52.098;21.006;2023-03-01T06:01:05;76.10;;;27.30;;
68126;SDS011;54931;52.098;21.006;2023-03-01T06:03:38;72.60;;;26.50;;
68126;SDS011;54931;52.098;21.006;2023-03-01T06:06:06;74.30;;;27.40;;
68126;SDS011;54931;52.098;21.006;2023-03-01T06:08:35;78.40;;;27.70;;
68126;SDS011;54931;52.098;21.006;2023-03-01T06:11:03;82.40;;;28.00;;
68126;SDS011;54931;52.098;21.006;2023-03-01T06:13:32;103.30;;;35.40;;
68126;SDS011;54931;52.098;21.006;2023-03-01T06:16:00;95.60;;;31.90;;
68126;SDS011;54931;52.098;21.006;2023-03-01T06:18:28;84.60;;;30.00;;
68126;SDS011;54931;52.098;21.006;2023-03-01T06:20:56;76.70;;;27.70;;
68126;SDS011;54931;52.098;21.006;2023-03-01T06:23:25;75.40;;;25.80;;
68126;SDS011;54931;52.098;21.006;2023-03-01T06:25:53;62.60;;;23.40;;
68126;SDS011;54931;52.098;21.006;2023-03-01T06:28:20;77.80;;;28.30;;
68126;SDS011;54931;52.098;21.006;2023-03-01T06:30:52;95.50;;;29.90;;
68126;SDS011;54931;52.098;21.006;2023-03-01T06:33:20;121.20;;;39.10;;
68126;SDS011;54931;52.098;21.006;2023-03-01T06:35:49;84.60;;;30.40;;
68126;SDS011;54931;52.098;21.006;2023-03-01T06:38:17;70.60;;;24.40;;
68126;SDS011;54931;52.098;21.006;2023-03-01T06:40:52;67.90;;;27.10;;
68126;SDS011;54931;52.098;21.006;2023-03-01T06:43:24;79.10;;;29.50;;
68126;SDS011;54931;52.098;21.006;2023-03-01T06:45:52;68.30;;;25.20;;
68126;SDS011;54931;52.098;21.006;2023-03-01T06:48:20;69.00;;;26.00;;
68126;SDS011;54931;52.098;21.006;2023-03-01T06:50:48;68.10;;;26.50;;
68126;SDS011;54931;52.098;21.006;2023-03-01T06:53:15;61.20;;;25.90;;
68126;SDS011;54931;52.098;21.006;2023-03-01T06:55:43;56.20;;;22.00;;
68126;SDS011;54931;52.098;21.006;2023-03-01T06:58:11;58.10;;;25.40;;
68126;SDS011;54931;52.098;21.006;2023-03-01T07:00:39;56.20;;;22.90;;
68126;SDS011;54931;52.098;21.006;2023-03-01T07:03:08;67.40;;;24.10;;
68126;SDS011;54931;52.098;21.006;2023-03-01T07:05:35;62.20;;;25.60;;
68126;SDS011;54931;52.098;21.006;2023-03-01T07:08:04;62.50;;;25.40;;
68126;SDS011;54931;52.098;21.006;2023-03-01T07:10:32;57.40;;;25.00;;
68126;SDS011;54931;52.098;21.006;2023-03-01T07:13:00;60.20;;;23.10;;
68126;SDS011;54931;52.098;21.006;2023-03-01T07:15:28;58.70;;;25.60;;
68126;SDS011;54931;52.098;21.006;2023-03-01T07:17:56;56.70;;;22.20;;
68126;SDS011;54931;52.098;21.006;2023-03-01T07:20:24;49.40;;;20.60;;
68126;SDS011;54931;52.098;21.006;2023-03-01T07:22:53;62.30;;;24.50;;
68126;SDS011;54931;52.098;21.006;2023-03-01T07:25:22;57.70;;;26.10;;
68126;SDS011;54931;52.098;21.006;2023-03-01T07:27:51;58.30;;;23.60;;
68126;SDS011;54931;52.098;21.006;2023-03-01T07:30:20;57.80;;;26.40;;
68126;SDS011;54931;52.098;21.006;2023-03-01T07:32:49;58.80;;;24.60;;
68126;SDS011;54931;52.098;21.006;2023-03-01T07:37:44;57.50;;;24.40;;
68126;SDS011;54931;52.098;21.006;2023-03-01T07:40:13;58.30;;;23.90;;
68126;SDS011;54931;52.098;21.006;2023-03-01T07:42:41;57.10;;;23.00;;
68126;SDS011;54931;52.098;21.006;2023-03-01T07:45:10;57.90;;;24.60;;
68126;SDS011;54931;52.098;21.006;2023-03-01T07:47:39;57.70;;;23.80;;
68126;SDS011;54931;52.098;21.006;2023-03-01T07:50:07;51.00;;;23.40;;
68126;SDS011;54931;52.098;21.006;2023-03-01T07:52:36;60.60;;;24.50;;
68126;SDS011;54931;52.098;21.006;2023-03-01T07:55:05;54.60;;;23.50;;
68126;SDS011;54931;52.098;21.006;2023-03-01T07:57:33;54.80;;;24.70;;
68126;SDS011;54931;52.098;21.006;2023-03-01T08:00:01;54.40;;;22.20;;
68126;SDS011;54931;52.098;21.006;2023-03-01T08:02:31;44.00;;;19.80;;
68126;SDS011;54931;52.098;21.006;2023-03-01T08:04:59;50.30;;;21.20;;
68126;SDS011;54931;52.098;21.006;2023-03-01T08:07:26;55.40;;;21.20;;
68126;SDS011;54931;52.098;21.006;2023-03-01T08:09:54;83.40;;;35.90;;
68126;SDS011;54931;52.098;21.006;2023-03-01T08:12:22;52.20;;;23.20;;
68126;SDS011;54931;52.098;21.006;2023-03-01T08:14:50;139.20;;;49.80;;
68126;SDS011;54931;52.098;21.006;2023-03-01T08:17:18;45.50;;;21.90;;
68126;SDS011;54931;52.098;21.006;2023-03-01T08:19:46;47.10;;;21.70;;
68126;SDS011;54931;52.098;21.006;2023-03-01T08:22:14;50.40;;;22.50;;
68126;SDS011;54931;52.098;21.006;2023-03-01T08:27:10;57.60;;;25.80;;
68126;SDS011;54931;52.098;21.006;2023-03-01T08:29:39;52.10;;;21.50;;
68126;SDS011;54931;52.098;21.006;2023-03-01T08:34:34;38.80;;;18.60;;
68126;SDS011;54931;52.098;21.006;2023-03-01T08:37:03;53.90;;;24.80;;
68126;SDS011;54931;52.098;21.006;2023-03-01T08:39:31;44.50;;;21.20;;
68126;SDS011;54931;52.098;21.006;2023-03-01T08:41:59;40.50;;;19.00;;
68126;SDS011;54931;52.098;21.006;2023-03-01T08:44:26;68.00;;;31.90;;
68126;SDS011;54931;52.098;21.006;2023-03-01T08:46:54;38.30;;;19.50;;
68126;SDS011;54931;52.098;21.006;2023-03-01T08:49:23;40.20;;;20.30;;
68126;SDS011;54931;52.098;21.006;2023-03-01T08:51:51;40.90;;;21.10;;
68126;SDS011;54931;52.098;21.006;2023-03-01T08:54:21;36.90;;;18.40;;
68126;SDS011;54931;52.098;21.006;2023-03-01T08:56:49;39.10;;;18.60;;
68126;SDS011;54931;52.098;21.006;2023-03-01T08:59:17;37.80;;;17.70;;
68126;SDS011;54931;52.098;21.006;2023-03-01T09:01:45;47.00;;;25.10;;
68126;SDS011;54931;52.098;21.006;2023-03-01T09:04:14;36.40;;;18.20;;
68126;SDS011;54931;52.098;21.006;2023-03-01T09:06:42;37.70;;;16.20;;
68126;SDS011;54931;52.098;21.006;2023-03-01T09:09:14;34.80;;;16.40;;
68126;SDS011;54931;52.098;21.006;2023-03-01T09:11:45;32.10;;;17.40;;
68126;SDS011;54931;52.098;21.006;2023-03-01T09:14:14;36.10;;;18.60;;
68126;SDS011;54931;52.098;21.006;2023-03-01T09:16:42;33.20;;;16.30;;
68126;SDS011;54931;52.098;21.006;2023-03-01T09:19:10;36.80;;;18.80;;
68126;SDS011;54931;52.098;21.006;2023-03-01T09:21:38;33.20;;;17.10;;
68126;SDS011;54931;52.098;21.006;2023-03-01T09:24:13;36.60;;;17.70;;
68126;SDS011;54931;52.098;21.006;2023-03-01T09:26:42;44.60;;;21.60;;
68126;SDS011;54931;52.098;21.006;2023-03-01T09:29:14;58.10;;;29.20;;
68126;SDS011;54931;52.098;21.006;2023-03-01T09:31:42;50.00;;;26.50;;
68126;SDS011;54931;52.098;21.006;2023-03-01T09:34:10;41.10;;;19.60;;
68126;SDS011;54931;52.098;21.006;2023-03-01T09:36:38;46.60;;;23.60;;
68126;SDS011;54931;52.098;21.006;2023-03-01T09:39:06;49.70;;;23.60;;
68126;SDS011;54931;52.098;21.006;2023-03-01T09:42:00;46.90;;;23.30;;
68126;SDS011;54931;52.098;21.006;2023-03-01T09:47:33;43.60;;;20.20;;
68126;SDS011;54931;52.098;21.006;2023-03-01T09:50:13;49.00;;;23.60;;
68126;SDS011;54931;52.098;21.006;2023-03-01T09:53:02;40.80;;;21.30;;
68126;SDS011;54931;52.098;21.006;2023-03-01T09:55:48;42.50;;;21.00;;
68126;SDS011;54931;52.098;21.006;2023-03-01T10:01:12;40.40;;;20.40;;
68126;SDS011;54931;52.098;21.006;2023-03-01T10:04:45;43.40;;;19.60;;
68126;SDS011;54931;52.098;21.006;2023-03-01T10:07:23;37.80;;;17.60;;
68126;SDS011;54931;52.098;21.006;2023-03-01T10:10:08;39.80;;;19.00;;
68126;SDS011;54931;52.098;21.006;2023-03-01T10:12:44;40.40;;;17.90;;
68126;SDS011;54931;52.098;21.006;2023-03-01T10:15:32;38.10;;;18.20;;
68126;SDS011;54931;52.098;21.006;2023-03-01T10:18:18;44.40;;;21.00;;
68126;SDS011;54931;52.098;21.006;2023-03-01T10:21:36;38.70;;;17.40;;
68126;SDS011;54931;52.098;21.006;2023-03-01T10:24:10;39.90;;;18.90;;
68126;SDS011;54931;52.098;21.006;2023-03-01T10:26:57;38.30;;;17.60;;
68126;SDS011;54931;52.098;21.006;2023-03-01T10:29:34;42.80;;;19.50;;
68126;SDS011;54931;52.098;21.006;2023-03-01T10:32:10;39.60;;;20.70;;
68126;SDS011;54931;52.098;21.006;2023-03-01T10:34:38;40.10;;;19.00;;
68126;SDS011;54931;52.098;21.006;2023-03-01T10:37:15;40.20;;;18.40;;
68126;SDS011;54931;52.098;21.006;2023-03-01T10:42:47;37.60;;;17.60;;
68126;SDS011;54931;52.098;21.006;2023-03-01T10:48:14;38.50;;;17.00;;
68126;SDS011;54931;52.098;21.006;2023-03-01T10:51:04;37.30;;;17.80;;
68126;SDS011;54931;52.098;21.006;2023-03-01T10:53:43;57.70;;;24.90;;
68126;SDS011;54931;52.098;21.006;2023-03-01T10:56:16;36.60;;;17.90;;
68126;SDS011;54931;52.098;21.006;2023-03-01T10:59:10;37.30;;;18.00;;
68126;SDS011;54931;52.098;21.006;2023-03-01T11:04:36;35.70;;;15.90;;
68126;SDS011;54931;52.098;21.006;2023-03-01T11:07:06;31.90;;;16.20;;
68126;SDS011;54931;52.098;21.006;2023-03-01T11:09:34;32.90;;;16.60;;
68126;SDS011;54931;52.098;21.006;2023-03-01T11:12:11;37.00;;;16.60;;
68126;SDS011;54931;52.098;21.006;2023-03-01T11:14:50;99.20;;;40.60;;
68126;SDS011;54931;52.098;21.006;2023-03-01T11:17:30;32.40;;;15.40;;
68126;SDS011;54931;52.098;21.006;2023-03-01T11:20:24;31.30;;;15.10;;
68126;SDS011;54931;52.098;21.006;2023-03-01T11:22:54;29.90;;;15.20;;
68126;SDS011;54931;52.098;21.006;2023-03-01T11:25:37;26.60;;;14.60;;
68126;SDS011;54931;52.098;21.006;2023-03-01T11:28:27;25.80;;;14.10;;
68126;SDS011;54931;52.098;21.006;2023-03-01T11:31:15;37.20;;;19.20;;
68126;SDS011;54931;52.098;21.006;2023-03-01T11:33:48;30.10;;;14.60;;
68126;SDS011;54931;52.098;21.006;2023-03-01T11:36:38;32.20;;;15.90;;
68126;SDS011;54931;52.098;21.006;2023-03-01T11:43:02;29.90;;;15.30;;
68126;SDS011;54931;52.098;21.006;2023-03-01T11:48:37;32.90;;;16.30;;
68126;SDS011;54931;52.098;21.006;2023-03-01T11:58:29;28.80;;;13.30;;
68126;SDS011;54931;52.098;21.006;2023-03-01T12:13:54;37.00;;;18.80;;
68126;SDS011;54931;52.098;21.006;2023-03-01T12:28:27;30.30;;;14.90;;
68126;SDS011;54931;52.098;21.006;2023-03-01T12:42:28;33.10;;;14.70;;
68126;SDS011;54931;52.098;21.006;2023-03-01T12:47:51;32.00;;;16.60;;
68126;SDS011;54931;52.098;21.006;2023-03-01T12:50:42;29.40;;;14.60;;
68126;SDS011;54931;52.098;21.006;2023-03-01T12:53:40;28.70;;;14.30;;
68126;SDS011;54931;52.098;21.006;2023-03-01T12:56:18;31.70;;;15.40;;
68126;SDS011;54931;52.098;21.006;2023-03-01T13:02:24;27.50;;;13.80;;
68126;SDS011;54931;52.098;21.006;2023-03-01T13:05:31;32.90;;;15.50;;
68126;SDS011;54931;52.098;21.006;2023-03-01T13:08:20;27.40;;;13.90;;
68126;SDS011;54931;52.098;21.006;2023-03-01T13:11:01;34.20;;;13.70;;
68126;SDS011;54931;52.098;21.006;2023-03-01T13:13:32;29.90;;;13.70;;
68126;SDS011;54931;52.098;21.006;2023-03-01T13:19:17;30.70;;;14.60;;
68126;SDS011;54931;52.098;21.006;2023-03-01T13:21:51;31.20;;;14.80;;
68126;SDS011;54931;52.098;21.006;2023-03-01T13:24:41;32.90;;;15.30;;
68126;SDS011;54931;52.098;21.006;2023-03-01T13:27:22;29.40;;;14.90;;
68126;SDS011;54931;52.098;21.006;2023-03-01T13:29:57;30.80;;;15.40;;
68126;SDS011;54931;52.098;21.006;2023-03-01T13:32:35;29.90;;;16.10;;
68126;SDS011;54931;52.098;21.006;2023-03-01T13:37:38;32.70;;;15.80;;
68126;SDS011;54931;52.098;21.006;2023-03-01T13:42:47;31.70;;;16.40;;
68126;SDS011;54931;52.098;21.006;2023-03-01T13:45:32;45.40;;;21.90;;
68126;SDS011;54931;52.098;21.006;2023-03-01T13:48:18;49.40;;;22.10;;
68126;SDS011;54931;52.098;21.006;2023-03-01T13:51:10;46.70;;;21.60;;
68126;SDS011;54931;52.098;21.006;2023-03-01T13:53:46;35.70;;;17.10;;
68126;SDS011;54931;52.098;21.006;2023-03-01T13:58:54;33.60;;;17.60;;
68126;SDS011;54931;52.098;21.006;2023-03-01T14:01:31;49.30;;;25.30;;
68126;SDS011;54931;52.098;21.006;2023-03-01T14:04:03;34.60;;;16.00;;
68126;SDS011;54931;52.098;21.006;2023-03-01T14:07:16;28.90;;;15.20;;
68126;SDS011;54931;52.098;21.006;2023-03-01T14:09:52;31.00;;;16.90;;
68126;SDS011;54931;52.098;21.006;2023-03-01T14:21:01;30.70;;;15.30;;
68126;SDS011;54931;52.098;21.006;2023-03-01T14:23:34;35.20;;;17.30;;
68126;SDS011;54931;52.098;21.006;2023-03-01T14:26:03;31.90;;;16.10;;
68126;SDS011;54931;52.098;21.006;2023-03-01T14:28:32;31.80;;;15.70;;
68126;SDS011;54931;52.098;21.006;2023-03-01T14:31:01;31.00;;;15.60;;
68126;SDS011;54931;52.098;21.006;2023-03-01T14:33:33;35.70;;;16.60;;
68126;SDS011;54931;52.098;21.006;2023-03-01T14:36:11;31.50;;;15.90;;
68126;SDS011;54931;52.098;21.006;2023-03-01T14:38:42;29.10;;;14.00;;
68126;SDS011;54931;52.098;21.006;2023-03-01T14:41:15;29.90;;;15.40;;
68126;SDS011;54931;52.098;21.006;2023-03-01T14:43:56;29.40;;;15.00;;
68126;SDS011;54931;52.098;21.006;2023-03-01T14:46:36;31.10;;;15.90;;
68126;SDS011;54931;52.098;21.006;2023-03-01T14:49:17;33.30;;;16.10;;
68126;SDS011;54931;52.098;21.006;2023-03-01T14:51:52;36.20;;;15.90;;
68126;SDS011;54931;52.098;21.006;2023-03-01T14:54:40;31.20;;;17.10;;
68126;SDS011;54931;52.098;21.006;2023-03-01T14:57:16;33.20;;;15.50;;
68126;SDS011;54931;52.098;21.006;2023-03-01T15:00:00;35.10;;;16.20;;
68126;SDS011;54931;52.098;21.006;2023-03-01T15:02:36;32.10;;;15.30;;
68126;SDS011;54931;52.098;21.006;2023-03-01T15:05:05;35.10;;;16.40;;
68126;SDS011;54931;52.098;21.006;2023-03-01T15:07:39;34.30;;;15.90;;
68126;SDS011;54931;52.098;21.006;2023-03-01T15:10:17;34.90;;;16.20;;
68126;SDS011;54931;52.098;21.006;2023-03-01T15:12:49;32.80;;;15.90;;
68126;SDS011;54931;52.098;21.006;2023-03-01T15:18:03;34.70;;;15.40;;
68126;SDS011;54931;52.098;21.006;2023-03-01T15:20:34;39.40;;;16.00;;
68126;SDS011;54931;52.098;21.006;2023-03-01T15:23:03;36.40;;;15.60;;
68126;SDS011;54931;52.098;21.006;2023-03-01T15:25:32;38.60;;;16.30;;
68126;SDS011;54931;52.098;21.006;2023-03-01T15:28:02;36.20;;;15.90;;
68126;SDS011;54931;52.098;21.006;2023-03-01T15:30:33;32.30;;;15.00;;
68126;SDS011;54931;52.098;21.006;2023-03-01T15:36:03;32.90;;;14.60;;
68126;SDS011;54931;52.098;21.006;2023-03-01T15:38:54;36.80;;;15.50;;
68126;SDS011;54931;52.098;21.006;2023-03-01T15:41:32;32.70;;;15.20;;
68126;SDS011;54931;52.098;21.006;2023-03-01T15:44:25;34.40;;;15.20;;
68126;SDS011;54931;52.098;21.006;2023-03-01T15:46:59;36.20;;;15.00;;
68126;SDS011;54931;52.098;21.006;2023-03-01T15:49:42;38.70;;;16.00;;
68126;SDS011;54931;52.098;21.006;2023-03-01T15:52:27;45.30;;;17.70;;
68126;SDS011;54931;52.098;21.006;2023-03-01T15:55:03;37.80;;;17.10;;
68126;SDS011;54931;52.098;21.006;2023-03-01T15:57:46;38.40;;;17.80;;
68126;SDS011;54931;52.098;21.006;2023-03-01T16:02:44;42.50;;;17.40;;
68126;SDS011;54931;52.098;21.006;2023-03-01T16:05:22;41.90;;;18.60;;
68126;SDS011;54931;52.098;21.006;2023-03-01T16:07:53;49.50;;;19.00;;
68126;SDS011;54931;52.098;21.006;2023-03-01T16:15:20;43.80;;;18.30;;
68126;SDS011;54931;52.098;21.006;2023-03-01T16:17:51;40.30;;;17.50;;
68126;SDS011;54931;52.098;21.006;2023-03-01T16:20:22;43.00;;;16.60;;
68126;SDS011;54931;52.098;21.006;2023-03-01T16:22:51;47.60;;;18.90;;
68126;SDS011;54931;52.098;21.006;2023-03-01T16:25:20;58.60;;;22.10;;
68126;SDS011;54931;52.098;21.006;2023-03-01T16:27:50;71.70;;;27.10;;
68126;SDS011;54931;52.098;21.006;2023-03-01T16:30:20;72.30;;;29.90;;
68126;SDS011;54931;52.098;21.006;2023-03-01T16:32:50;90.70;;;34.90;;